EDDH

Hamburg Airport

Hamburg, Germany
METAR EDDH 162350Z 26007KT 9999 FEW006 BKN037 01/00 Q1012 TEMPO BKN006
Observed Flight Rules
Dec-16 @ 23:50 UTC (37 minutes ago) Visual Flight Rules
Wind Visibility Clouds
260° at 7 knots 10,000+ meters
  • Few at 600' AGL
  • Broken at 3,700' AGL
Temperatures Readings
Current 1°C / 34°F
Dewpoint 0°C / 32°F
Humidity 93%
Altimeter 29.88" Hg
Pressure 1012 hPa
Elevation 16
METAR EDDH 162350Z 26007KT 9999 FEW006 BKN037 01/00 Q1012 TEMPO BKN006
Observed Flight Rules
Dec-16 @ 23:50 UTC
(37 minutes ago)
VFR
Wind Visibility
260° at 7 knots 10,000+ meters
Clouds
  • Few at 600' AGL
  • Broken at 3,700' AGL
Temperature Dewpoint
1°C / 34°F 0°C / 32°F
Humidity Altimeter Pressure
93% 29.88" Hg 1012 hPa